createdAt,value
2023-02-15T00:01:37.579Z,23.50
2023-02-15T00:04:05.593Z,23.80
2023-02-15T00:06:34.713Z,25.00
2023-02-15T00:09:02.699Z,24.43
2023-02-15T00:11:43.672Z,30.80
2023-02-15T00:14:12.349Z,23.53
2023-02-15T00:16:40.559Z,25.53
2023-02-15T00:19:10.954Z,25.20
2023-02-15T00:21:40.524Z,25.03
2023-02-15T00:24:09.251Z,27.70
2023-02-15T00:26:37.459Z,25.40
2023-02-15T00:29:05.209Z,26.20
2023-02-15T00:31:33.932Z,26.23
2023-02-15T00:36:52.535Z,26.37
2023-02-15T00:39:22.333Z,25.77
2023-02-15T00:41:49.924Z,26.00
2023-02-15T00:44:19.796Z,25.33
2023-02-15T00:46:47.450Z,25.37
2023-02-15T00:49:15.119Z,26.40
2023-02-15T00:51:43.004Z,26.93
2023-02-15T00:54:12.934Z,25.57
2023-02-15T00:57:00.039Z,26.20
2023-02-15T00:59:28.003Z,27.17
2023-02-15T01:01:55.658Z,27.87
2023-02-15T01:04:23.787Z,27.30
2023-02-15T01:06:51.502Z,26.50
2023-02-15T01:09:20.513Z,27.40
2023-02-15T01:11:48.486Z,26.40
2023-02-15T01:14:16.588Z,28.17
2023-02-15T01:16:44.232Z,27.83
2023-02-15T01:19:11.924Z,25.73
2023-02-15T01:21:41.834Z,27.43
2023-02-15T01:24:13.408Z,26.07
2023-02-15T01:26:42.759Z,26.30
2023-02-15T01:29:10.413Z,26.43
2023-02-15T01:31:40.283Z,27.53
2023-02-15T01:34:08.236Z,26.33
2023-02-15T01:36:36.230Z,28.37
2023-02-15T01:39:04.492Z,28.07
2023-02-15T01:41:33.755Z,27.20
2023-02-15T01:44:04.295Z,27.80
2023-02-15T01:46:35.824Z,28.37
2023-02-15T01:49:04.956Z,27.70
2023-02-15T01:51:35.038Z,28.87
2023-02-15T01:54:05.216Z,28.80
2023-02-15T01:56:38.116Z,29.07
2023-02-15T01:59:10.275Z,28.87
2023-02-15T02:01:38.545Z,28.40
2023-02-15T02:04:09.093Z,29.23
2023-02-15T02:06:38.890Z,28.60
2023-02-15T02:09:07.869Z,29.00
2023-02-15T02:11:35.969Z,28.47
2023-02-15T02:14:04.050Z,28.70
2023-02-15T02:16:40.704Z,30.03
2023-02-15T02:19:24.801Z,30.00
2023-02-15T02:22:09.014Z,29.20
2023-02-15T02:24:51.632Z,30.73
2023-02-15T02:27:34.168Z,30.43
2023-02-15T02:30:20.764Z,32.63
2023-02-15T02:33:03.433Z,32.30
2023-02-15T02:35:32.998Z,32.43
2023-02-15T02:38:05.421Z,32.83
2023-02-15T02:40:47.487Z,34.70
2023-02-15T02:43:19.526Z,34.80
2023-02-15T02:45:52.079Z,35.27
2023-02-15T02:48:23.770Z,33.20
2023-02-15T02:50:51.476Z,35.43
2023-02-15T02:53:19.380Z,37.10
2023-02-15T02:55:48.590Z,35.20
2023-02-15T02:58:18.781Z,35.03
2023-02-15T03:00:48.391Z,35.20
2023-02-15T03:03:22.854Z,34.10
2023-02-15T03:05:52.890Z,34.70
2023-02-15T03:08:25.212Z,32.27
2023-02-15T03:10:57.678Z,35.40
2023-02-15T03:13:25.898Z,33.93
2023-02-15T03:16:12.425Z,33.03
2023-02-15T03:18:42.939Z,34.27
2023-02-15T03:21:23.040Z,34.80
2023-02-15T03:23:53.940Z,34.10
2023-02-15T03:26:22.554Z,34.10
2023-02-15T03:28:52.587Z,34.83
2023-02-15T03:31:22.835Z,34.07
2023-02-15T03:33:52.474Z,32.27
2023-02-15T03:36:23.386Z,33.90
2023-02-15T03:38:55.198Z,33.23
2023-02-15T03:41:26.341Z,34.20
2023-02-15T03:43:56.340Z,33.70
2023-02-15T03:46:26.600Z,34.80
2023-02-15T03:48:55.583Z,33.07
2023-02-15T03:51:36.369Z,34.90
2023-02-15T03:54:05.789Z,35.47
2023-02-15T03:56:35.624Z,34.87
2023-02-15T03:59:20.500Z,35.43
2023-02-15T04:01:59.429Z,35.40
2023-02-15T04:04:29.614Z,34.93
2023-02-15T04:06:58.664Z,34.67
2023-02-15T04:09:44.431Z,34.73
2023-02-15T04:12:12.141Z,35.00
2023-02-15T04:14:57.595Z,35.00
2023-02-15T04:17:25.406Z,33.63
2023-02-15T04:20:10.791Z,35.40
2023-02-15T04:22:57.423Z,34.57
2023-02-15T04:25:25.504Z,32.50
2023-02-15T04:27:54.477Z,33.50
2023-02-15T04:30:23.880Z,34.90
2023-02-15T04:32:52.087Z,34.10
2023-02-15T04:35:20.028Z,32.90
2023-02-15T04:37:49.212Z,32.00
2023-02-15T04:40:19.316Z,34.33
2023-02-15T04:42:49.090Z,32.30
2023-02-15T04:45:17.218Z,32.70
2023-02-15T04:47:45.380Z,33.77
2023-02-15T04:50:13.246Z,31.83
2023-02-15T04:52:41.153Z,34.27
2023-02-15T04:55:10.395Z,32.70
2023-02-15T04:57:38.372Z,32.13
2023-02-15T05:00:09.762Z,32.57
2023-02-15T05:02:37.449Z,34.07
2023-02-15T05:05:05.476Z,33.47
2023-02-15T05:07:33.578Z,32.57
2023-02-15T05:10:01.294Z,34.50
2023-02-15T05:12:30.325Z,32.30
2023-02-15T05:14:58.273Z,33.87
2023-02-15T05:17:26.681Z,33.70
2023-02-15T05:19:54.365Z,33.67
2023-02-15T05:22:22.074Z,33.50
2023-02-15T05:25:07.780Z,34.00
2023-02-15T05:27:54.256Z,33.03
2023-02-15T05:30:22.290Z,34.03
2023-02-15T05:32:50.134Z,34.70
2023-02-15T05:35:17.979Z,34.90
2023-02-15T05:37:47.987Z,34.40
2023-02-15T05:40:15.852Z,35.00
2023-02-15T05:42:44.850Z,36.93
2023-02-15T05:45:13.096Z,36.43
2023-02-15T05:47:40.814Z,34.70
2023-02-15T05:50:09.364Z,35.60
2023-02-15T05:52:37.073Z,37.13
2023-02-15T05:55:05.165Z,37.20
2023-02-15T05:57:32.801Z,37.00
2023-02-15T06:00:02.115Z,38.80
2023-02-15T06:02:39.668Z,39.93
2023-02-15T06:05:08.136Z,49.33
2023-02-15T06:07:35.739Z,39.30
2023-02-15T06:10:03.973Z,36.97
2023-02-15T06:12:32.040Z,40.90
2023-02-15T06:14:59.728Z,37.77
2023-02-15T06:17:28.638Z,38.10
2023-02-15T06:19:56.794Z,38.07
2023-02-15T06:22:24.497Z,38.33
2023-02-15T06:24:52.334Z,37.37
2023-02-15T06:27:20.119Z,37.63
2023-02-15T06:29:47.892Z,41.50
2023-02-15T06:32:15.523Z,36.87
2023-02-15T06:34:45.012Z,42.07
2023-02-15T06:37:12.736Z,42.43
2023-02-15T06:39:40.387Z,38.20
2023-02-15T06:42:08.952Z,43.00
2023-02-15T06:44:36.559Z,38.40
2023-02-15T06:47:06.198Z,38.13
2023-02-15T06:49:34.133Z,40.10
2023-02-15T06:52:03.267Z,40.67
2023-02-15T06:54:31.445Z,42.60
2023-02-15T06:56:59.286Z,42.00
2023-02-15T06:59:27.169Z,43.40
2023-02-15T07:01:54.835Z,45.33
2023-02-15T07:04:22.964Z,40.93
2023-02-15T07:06:52.689Z,41.83
2023-02-15T07:09:23.576Z,42.43
2023-02-15T07:12:08.815Z,41.87
2023-02-15T07:14:36.646Z,42.10
2023-02-15T07:17:04.762Z,44.03
2023-02-15T07:19:32.964Z,42.93
2023-02-15T07:22:02.122Z,44.23
2023-02-15T07:24:31.218Z,50.60
2023-02-15T07:26:59.585Z,46.50
2023-02-15T07:29:28.732Z,46.47
2023-02-15T07:31:57.036Z,42.70
2023-02-15T07:34:24.887Z,44.20
2023-02-15T07:36:55.022Z,46.70
2023-02-15T07:39:22.838Z,44.73
2023-02-15T07:41:52.188Z,49.50
2023-02-15T07:44:20.154Z,60.27
2023-02-15T07:46:47.825Z,50.43
2023-02-15T07:49:16.567Z,52.50
2023-02-15T07:51:45.519Z,46.87
2023-02-15T07:54:13.231Z,46.40
2023-02-15T07:56:40.938Z,45.77
2023-02-15T07:59:10.944Z,43.20
2023-02-15T08:01:39.783Z,45.00
2023-02-15T08:04:08.450Z,47.30
2023-02-15T08:06:37.206Z,52.30
2023-02-15T08:09:05.461Z,45.40
2023-02-15T08:11:35.050Z,49.87
2023-02-15T08:14:04.848Z,44.57
2023-02-15T08:16:35.454Z,45.40
2023-02-15T08:19:04.381Z,41.60
2023-02-15T08:21:32.128Z,43.57
2023-02-15T08:24:00.254Z,39.77
2023-02-15T08:26:28.641Z,40.27
2023-02-15T08:28:56.794Z,39.17
2023-02-15T08:31:25.429Z,40.63
2023-02-15T08:33:55.266Z,37.70
2023-02-15T08:36:25.807Z,47.80
2023-02-15T08:38:53.510Z,39.47
2023-02-15T08:41:22.233Z,37.60
2023-02-15T08:43:51.960Z,37.40
2023-02-15T08:46:20.197Z,38.17
2023-02-15T08:48:48.441Z,39.07
2023-02-15T08:51:18.668Z,38.27
2023-02-15T08:53:49.938Z,39.27
2023-02-15T08:56:18.192Z,37.07
2023-02-15T08:58:46.170Z,37.40
2023-02-15T09:01:15.631Z,38.27
2023-02-15T09:03:43.395Z,38.57
2023-02-15T09:06:11.921Z,34.53
2023-02-15T09:08:41.005Z,34.57
2023-02-15T09:11:09.847Z,35.90
2023-02-15T09:13:38.143Z,35.37
2023-02-15T09:16:06.945Z,34.93
2023-02-15T09:18:36.396Z,34.17
2023-02-15T09:21:06.007Z,34.07
2023-02-15T09:23:33.604Z,32.70
2023-02-15T09:26:05.459Z,30.40
2023-02-15T09:28:34.732Z,31.10
2023-02-15T09:31:09.169Z,31.53
2023-02-15T09:33:37.967Z,27.63
2023-02-15T09:36:06.614Z,30.30
2023-02-15T09:38:34.348Z,30.40
2023-02-15T09:41:13.410Z,29.43
2023-02-15T09:43:44.019Z,31.93
2023-02-15T09:46:22.272Z,29.43
2023-02-15T09:48:53.408Z,28.23
2023-02-15T09:51:42.113Z,28.10
2023-02-15T09:54:26.124Z,28.60
2023-02-15T09:57:00.260Z,27.43
2023-02-15T09:59:30.544Z,26.00
2023-02-15T10:02:04.933Z,25.83
2023-02-15T10:04:41.046Z,25.37
2023-02-15T10:07:13.799Z,24.60
2023-02-15T10:09:47.898Z,23.63
2023-02-15T10:12:26.462Z,24.00
2023-02-15T10:14:59.300Z,26.17
2023-02-15T10:17:34.049Z,24.87
2023-02-15T10:20:08.902Z,23.50
2023-02-15T10:22:40.907Z,22.70
2023-02-15T10:25:15.831Z,25.53
2023-02-15T10:27:48.270Z,24.23
2023-02-15T10:30:16.333Z,23.50
2023-02-15T10:32:49.572Z,24.23
2023-02-15T10:35:21.920Z,24.00
2023-02-15T10:37:55.603Z,22.80
2023-02-15T10:40:27.072Z,24.00
2023-02-15T10:43:07.581Z,23.60
2023-02-15T10:45:45.389Z,24.60
2023-02-15T10:48:24.868Z,23.90
2023-02-15T10:50:53.347Z,23.80
2023-02-15T10:53:28.759Z,23.63
2023-02-15T10:55:59.332Z,25.37
2023-02-15T10:58:38.466Z,24.87
2023-02-15T11:01:12.642Z,23.77
2023-02-15T11:03:51.881Z,24.63
2023-02-15T11:06:21.014Z,22.40
2023-02-15T11:08:53.042Z,24.30
2023-02-15T11:11:23.398Z,25.50
2023-02-15T11:13:55.842Z,24.33
2023-02-15T11:16:25.029Z,24.23
2023-02-15T11:18:55.291Z,21.30
2023-02-15T11:21:24.229Z,21.80
2023-02-15T11:23:53.329Z,22.00
2023-02-15T11:26:24.324Z,22.30
2023-02-15T11:28:56.059Z,22.10
2023-02-15T11:31:25.140Z,21.27
2023-02-15T11:33:54.780Z,21.53
2023-02-15T11:36:23.921Z,22.70
2023-02-15T11:38:54.854Z,22.10
2023-02-15T11:41:25.384Z,22.13
2023-02-15T11:43:56.592Z,22.40
2023-02-15T11:46:24.443Z,22.23
2023-02-15T11:48:52.226Z,22.47
2023-02-15T11:51:23.766Z,23.63
2023-02-15T11:53:53.394Z,23.60
2023-02-15T11:56:22.984Z,22.93
2023-02-15T11:58:53.215Z,22.63
2023-02-15T12:01:25.328Z,22.40
2023-02-15T12:03:53.872Z,22.77
2023-02-15T12:06:25.548Z,22.57
2023-02-15T12:08:58.652Z,26.33
2023-02-15T12:11:30.759Z,23.50
2023-02-15T12:13:59.600Z,22.57
2023-02-15T12:16:29.781Z,21.60
2023-02-15T12:18:58.505Z,23.30
2023-02-15T12:21:28.705Z,23.47
2023-02-15T12:23:58.176Z,23.63
2023-02-15T12:26:26.949Z,23.73
2023-02-15T12:28:59.572Z,24.17
2023-02-15T12:31:29.372Z,24.20
2023-02-15T12:33:59.607Z,27.20
2023-02-15T12:36:31.379Z,23.93
2023-02-15T12:39:08.098Z,23.70
2023-02-15T12:41:36.218Z,23.43
2023-02-15T12:44:14.336Z,22.97
2023-02-15T12:46:42.699Z,24.10
2023-02-15T12:49:20.524Z,23.20
2023-02-15T12:51:50.610Z,22.23
2023-02-15T12:54:33.703Z,23.00
2023-02-15T12:57:01.522Z,22.77
2023-02-15T12:59:29.216Z,22.47
2023-02-15T13:01:57.661Z,22.53
2023-02-15T13:04:28.573Z,23.50
2023-02-15T13:06:58.028Z,23.97
2023-02-15T13:09:30.861Z,22.70
2023-02-15T13:11:58.909Z,22.27
2023-02-15T13:14:31.185Z,25.80
2023-02-15T13:17:00.501Z,26.20
2023-02-15T13:19:33.462Z,24.37
2023-02-15T13:22:03.002Z,22.50
2023-02-15T13:24:34.202Z,22.80
2023-02-15T13:27:15.056Z,23.83
2023-02-15T13:29:45.951Z,22.63
2023-02-15T13:32:17.603Z,22.50
2023-02-15T13:34:46.720Z,23.73
2023-02-15T13:37:17.522Z,23.60
2023-02-15T13:39:48.749Z,25.47
2023-02-15T13:42:22.614Z,20.80
2023-02-15T13:44:55.777Z,23.10
2023-02-15T13:47:25.261Z,22.30
2023-02-15T13:50:00.644Z,22.97
2023-02-15T13:52:30.784Z,22.57
2023-02-15T13:55:04.893Z,22.77
2023-02-15T13:57:51.652Z,23.67
2023-02-15T14:00:22.424Z,20.50
2023-02-15T14:03:02.042Z,21.23
2023-02-15T14:05:50.470Z,20.93
2023-02-15T14:08:23.321Z,22.87
2023-02-15T14:10:57.355Z,21.13
2023-02-15T14:13:42.876Z,21.70
2023-02-15T14:16:13.796Z,19.83
2023-02-15T14:18:44.104Z,21.00
2023-02-15T14:21:17.405Z,22.97
2023-02-15T14:23:49.982Z,20.00
2023-02-15T14:26:21.434Z,21.00
2023-02-15T14:28:53.133Z,20.17
2023-02-15T14:31:24.534Z,20.67
2023-02-15T14:33:55.856Z,21.03
2023-02-15T14:36:27.643Z,19.67
2023-02-15T14:39:01.944Z,18.57
2023-02-15T14:41:32.504Z,20.53
2023-02-15T14:44:03.665Z,20.50
2023-02-15T14:46:34.887Z,20.33
2023-02-15T14:49:08.133Z,20.90
2023-02-15T14:51:54.737Z,20.10
2023-02-15T14:54:41.139Z,19.80
2023-02-15T14:57:27.688Z,19.60
2023-02-15T14:59:58.254Z,17.93
2023-02-15T15:02:27.351Z,18.73
2023-02-15T15:04:58.587Z,18.80
2023-02-15T15:07:27.514Z,18.87
2023-02-15T15:10:01.109Z,18.30
2023-02-15T15:12:40.684Z,18.90
2023-02-15T15:15:09.876Z,17.70
2023-02-15T15:17:56.239Z,19.00
2023-02-15T15:20:41.816Z,21.47
2023-02-15T15:23:33.788Z,21.27
2023-02-15T15:26:22.781Z,20.30
2023-02-15T15:29:05.401Z,18.53
2023-02-15T15:31:39.000Z,19.60
2023-02-15T15:34:19.721Z,19.67
2023-02-15T15:36:58.139Z,17.50
2023-02-15T15:39:39.340Z,18.07
2023-02-15T15:42:13.968Z,18.50
2023-02-15T15:44:54.963Z,19.40
2023-02-15T15:47:30.883Z,18.40
2023-02-15T15:49:59.655Z,17.27
2023-02-15T15:52:28.289Z,18.37
2023-02-15T15:54:58.639Z,16.30
2023-02-15T15:57:29.429Z,16.80
2023-02-15T15:59:59.881Z,17.50
2023-02-15T16:02:29.455Z,17.37
2023-02-15T16:05:07.870Z,20.83
2023-02-15T16:07:35.997Z,20.60
2023-02-15T16:10:04.994Z,18.70
2023-02-15T16:12:34.099Z,18.50
2023-02-15T16:15:03.747Z,17.93
2023-02-15T16:17:34.523Z,19.50
2023-02-15T16:20:05.135Z,19.23
2023-02-15T16:22:34.214Z,19.87
2023-02-15T16:25:18.962Z,21.90
2023-02-15T16:27:46.947Z,19.07
2023-02-15T16:30:31.127Z,19.20
2023-02-15T16:33:07.009Z,19.27
2023-02-15T16:35:35.783Z,20.90
2023-02-15T16:38:03.545Z,18.97
2023-02-15T16:40:43.967Z,22.93
2023-02-15T16:43:17.809Z,20.20
2023-02-15T16:45:46.403Z,20.90
2023-02-15T16:48:18.867Z,19.70
2023-02-15T16:50:49.506Z,20.87
2023-02-15T16:53:20.516Z,20.23
2023-02-15T16:55:51.238Z,25.10
2023-02-15T16:58:19.645Z,22.27
2023-02-15T17:00:47.671Z,23.10
2023-02-15T17:03:25.096Z,22.03
2023-02-15T17:05:53.900Z,22.13
2023-02-15T17:08:26.476Z,22.90
2023-02-15T17:11:06.387Z,25.00
2023-02-15T17:13:34.549Z,26.97
2023-02-15T17:16:24.638Z,37.70
2023-02-15T17:18:54.890Z,29.20
2023-02-15T17:21:26.104Z,29.40
2023-02-15T17:24:00.008Z,29.10
2023-02-15T17:26:29.239Z,23.93
2023-02-15T17:28:58.640Z,26.20
2023-02-15T17:31:29.732Z,22.80
2023-02-15T17:33:59.583Z,21.10
2023-02-15T17:36:29.798Z,21.00
2023-02-15T17:39:02.372Z,21.90
2023-02-15T17:41:30.731Z,18.60
2023-02-15T17:43:58.583Z,23.17
2023-02-15T17:46:27.453Z,28.37
2023-02-15T17:48:56.175Z,20.63
2023-02-15T17:51:25.487Z,21.60
2023-02-15T17:54:10.878Z,23.23
2023-02-15T17:56:39.145Z,19.40
2023-02-15T17:59:08.054Z,34.13
2023-02-15T18:01:53.996Z,32.30
2023-02-15T18:04:39.767Z,31.47
2023-02-15T18:07:29.266Z,25.47
2023-02-15T18:10:14.658Z,26.90
2023-02-15T18:15:33.492Z,33.87
2023-02-15T18:18:01.719Z,29.47
2023-02-15T18:20:32.267Z,29.50
2023-02-15T18:23:02.421Z,26.83
2023-02-15T18:25:30.498Z,31.57
2023-02-15T18:27:58.186Z,28.80
2023-02-15T18:30:27.257Z,33.60
2023-02-15T18:32:56.578Z,30.27
2023-02-15T18:35:27.334Z,27.50
2023-02-15T18:37:55.416Z,27.77
2023-02-15T18:40:27.448Z,29.40
2023-02-15T18:42:57.004Z,29.80
2023-02-15T18:45:27.709Z,28.00
2023-02-15T18:47:55.497Z,29.63
2023-02-15T18:50:23.589Z,28.90
2023-02-15T18:52:51.944Z,29.90
2023-02-15T18:55:20.983Z,32.23
2023-02-15T18:57:50.385Z,26.80
2023-02-15T19:00:19.312Z,26.10
2023-02-15T19:02:47.055Z,29.53
2023-02-15T19:05:16.142Z,29.67
2023-02-15T19:07:45.589Z,24.77
2023-02-15T19:10:16.405Z,32.73
2023-02-15T19:12:45.477Z,36.00
2023-02-15T19:15:17.583Z,46.87
2023-02-15T19:17:45.475Z,41.27
2023-02-15T19:20:17.543Z,36.00
2023-02-15T19:22:46.338Z,48.03
2023-02-15T19:25:18.067Z,38.83
2023-02-15T19:27:46.653Z,33.57
2023-02-15T19:30:16.227Z,26.87
2023-02-15T19:32:46.152Z,26.47
2023-02-15T19:35:17.496Z,23.93
2023-02-15T19:42:20.814Z,23.00
2023-02-15T19:44:48.613Z,26.20
2023-02-15T19:47:16.415Z,28.70
2023-02-15T19:49:45.525Z,28.40
2023-02-15T19:52:17.111Z,28.13
2023-02-15T19:54:46.363Z,27.30
2023-02-15T19:57:14.537Z,26.90
2023-02-15T19:59:42.807Z,30.37
2023-02-15T20:02:13.828Z,28.80
2023-02-15T20:04:43.377Z,31.40
2023-02-15T20:07:17.433Z,28.33
2023-02-15T20:09:45.145Z,28.10
2023-02-15T20:12:17.632Z,25.63
2023-02-15T20:14:45.498Z,27.30
2023-02-15T20:17:13.244Z,23.97
2023-02-15T20:19:41.784Z,26.73
2023-02-15T20:22:19.024Z,25.77
2023-02-15T20:24:46.933Z,30.20
2023-02-15T20:27:16.387Z,33.70
2023-02-15T20:29:44.239Z,32.30
2023-02-15T20:32:12.715Z,30.53
2023-02-15T20:34:40.606Z,37.63
2023-02-15T20:37:16.193Z,30.73
2023-02-15T20:39:46.257Z,30.40
2023-02-15T20:42:14.882Z,34.20
2023-02-15T20:44:43.247Z,35.20
2023-02-15T20:47:11.097Z,33.20
2023-02-15T20:49:38.758Z,41.00
2023-02-15T20:52:14.186Z,33.70
2023-02-15T20:54:42.045Z,35.30
2023-02-15T20:57:12.506Z,31.20
2023-02-15T20:59:41.384Z,32.20
2023-02-15T21:02:16.597Z,28.10
2023-02-15T21:04:44.724Z,29.10
2023-02-15T21:07:14.720Z,26.77
2023-02-15T21:09:42.692Z,27.23
2023-02-15T21:12:13.419Z,27.00
2023-02-15T21:14:41.931Z,28.73
2023-02-15T21:17:11.729Z,26.70
2023-02-15T21:19:41.105Z,25.90
2023-02-15T21:22:11.910Z,25.60
2023-02-15T21:24:39.806Z,27.60
2023-02-15T21:27:07.757Z,23.97
2023-02-15T21:29:36.894Z,24.30
2023-02-15T21:32:05.052Z,29.07
2023-02-15T21:34:33.051Z,25.30
2023-02-15T21:37:00.709Z,30.63
2023-02-15T21:39:30.078Z,24.30
2023-02-15T21:42:17.720Z,24.20
2023-02-15T21:45:04.924Z,22.60
2023-02-15T21:47:54.152Z,22.40
2023-02-15T21:50:40.663Z,20.67
2023-02-15T21:53:12.771Z,22.57
2023-02-15T21:55:40.435Z,22.10
2023-02-15T21:58:18.183Z,22.00
2023-02-15T22:00:48.719Z,22.30
2023-02-15T22:03:16.656Z,22.77
2023-02-15T22:05:44.544Z,22.83
2023-02-15T22:08:12.831Z,22.97
2023-02-15T22:10:41.404Z,21.80
2023-02-15T22:13:13.390Z,22.80
2023-02-15T22:15:41.817Z,23.00
2023-02-15T22:18:19.155Z,26.53
2023-02-15T22:20:47.037Z,25.00
2023-02-15T22:23:14.751Z,22.90
2023-02-15T22:25:42.772Z,23.60
2023-02-15T22:28:16.545Z,20.70
2023-02-15T22:30:45.560Z,21.40
2023-02-15T22:33:23.915Z,21.73
2023-02-15T22:35:51.955Z,22.67
2023-02-15T22:38:21.518Z,20.90
2023-02-15T22:40:50.429Z,21.27
2023-02-15T22:43:22.745Z,20.43
2023-02-15T22:45:50.786Z,21.33
2023-02-15T22:48:21.785Z,22.43
2023-02-15T22:50:51.085Z,21.30
2023-02-15T22:53:18.721Z,22.90
2023-02-15T22:55:47.010Z,24.93
2023-02-15T22:58:17.325Z,23.97
2023-02-15T23:00:45.472Z,20.83
2023-02-15T23:03:17.725Z,25.70
2023-02-15T23:05:45.920Z,23.80
2023-02-15T23:08:15.377Z,27.40
2023-02-15T23:10:44.836Z,21.30
2023-02-15T23:13:25.605Z,23.23
2023-02-15T23:15:55.803Z,21.70
2023-02-15T23:18:24.977Z,21.73
2023-02-15T23:20:54.377Z,23.00
2023-02-15T23:23:25.973Z,21.10
2023-02-15T23:25:54.012Z,20.83
2023-02-15T23:28:24.249Z,21.90
2023-02-15T23:30:52.651Z,19.90
2023-02-15T23:33:21.328Z,21.53
2023-02-15T23:35:49.807Z,19.37
2023-02-15T23:38:23.155Z,22.13
2023-02-15T23:41:11.713Z,21.00
2023-02-15T23:43:40.951Z,19.47
2023-02-15T23:46:09.073Z,19.70
2023-02-15T23:48:37.559Z,21.17
2023-02-15T23:51:06.375Z,21.00
2023-02-15T23:53:35.047Z,20.27
2023-02-15T23:56:04.435Z,20.27
2023-02-15T23:58:35.611Z,20.60
